createdAt,value
2018-09-06T04:05:01.900Z,100.00
2018-09-06T04:07:31.676Z,100.00
2018-09-06T04:10:01.735Z,100.00
2018-09-06T04:12:31.155Z,100.00
2018-09-06T04:15:00.204Z,100.00
2018-09-06T04:17:29.432Z,100.00
2018-09-06T04:19:59.021Z,100.00
2018-09-06T04:22:28.292Z,100.00
2018-09-06T04:24:58.413Z,100.00
2018-09-06T04:27:27.707Z,100.00
2018-09-06T04:29:56.620Z,100.00
2018-09-06T04:32:26.045Z,100.00
2018-09-06T04:34:55.417Z,100.00
2018-09-06T04:37:24.465Z,100.00
2018-09-06T04:39:53.603Z,100.00
2018-09-06T04:42:22.548Z,100.00
2018-09-06T04:44:51.597Z,100.00
2018-09-06T04:47:20.672Z,100.00
2018-09-06T04:49:51.487Z,100.00
2018-09-06T04:52:20.481Z,100.00
2018-09-06T04:54:50.940Z,100.00
2018-09-06T04:57:20.340Z,100.00
2018-09-06T04:59:49.776Z,100.00
2018-09-06T05:02:18.744Z,100.00
2018-09-06T05:04:47.630Z,100.00
2018-09-06T05:07:16.530Z,100.00
2018-09-06T05:09:45.740Z,100.00
2018-09-06T05:12:14.920Z,100.00
2018-09-06T05:14:44.020Z,100.00
2018-09-06T05:17:13.344Z,100.00
2018-09-06T05:19:42.411Z,100.00
2018-09-06T05:22:11.353Z,100.00
2018-09-06T05:24:40.194Z,100.00
2018-09-06T05:27:09.040Z,100.00
2018-09-06T05:29:38.043Z,100.00
2018-09-06T05:32:06.993Z,100.00
2018-09-06T05:34:36.471Z,100.00
2018-09-06T05:37:06.367Z,100.00
2018-09-06T05:39:35.336Z,100.00
2018-09-06T05:42:04.476Z,100.00
2018-09-06T05:44:33.161Z,100.00
2018-09-06T05:47:02.009Z,100.00
2018-09-06T05:49:30.913Z,100.00
2018-09-06T05:52:00.217Z,100.00
2018-09-06T05:54:29.999Z,100.00
2018-09-06T05:56:59.244Z,100.00
2018-09-06T05:59:28.139Z,100.00
2018-09-06T06:01:57.035Z,100.00
2018-09-06T06:04:26.095Z,100.00
2018-09-06T06:06:55.011Z,100.00
2018-09-06T06:09:23.912Z,100.00
2018-09-06T06:11:53.030Z,100.00
2018-09-06T06:14:21.888Z,100.00
2018-09-06T06:16:51.357Z,100.00
2018-09-06T06:19:20.908Z,100.00
2018-09-06T06:21:50.028Z,100.00
2018-09-06T06:24:18.885Z,100.00
2018-09-06T06:26:48.031Z,100.00
2018-09-06T06:29:17.044Z,100.00
2018-09-06T06:31:46.332Z,100.00
2018-09-06T06:34:15.427Z,100.00
2018-09-06T06:36:44.213Z,100.00
2018-09-06T06:39:14.089Z,100.00
2018-09-06T06:41:43.064Z,100.00
2018-09-06T06:44:12.223Z,100.00
2018-09-06T06:46:41.088Z,100.00
2018-09-06T06:49:09.940Z,100.00
2018-09-06T06:51:39.046Z,99.72
2018-09-06T06:54:07.906Z,99.03
2018-09-06T06:56:36.771Z,97.85
2018-09-06T06:59:05.709Z,98.41
2018-09-06T07:01:34.860Z,99.01
2018-09-06T07:04:03.664Z,96.74
2018-09-06T07:06:34.107Z,95.96
2018-09-06T07:09:04.283Z,97.09
2018-09-06T07:11:34.053Z,97.01
2018-09-06T07:14:03.127Z,97.14
2018-09-06T07:16:31.954Z,96.27
2018-09-06T07:19:00.735Z,95.14
2018-09-06T07:21:29.811Z,95.66
2018-09-06T07:23:58.803Z,94.88
2018-09-06T07:26:27.744Z,94.81
2018-09-06T07:28:57.411Z,94.90
2018-09-06T07:31:26.942Z,94.96
2018-09-06T07:33:56.119Z,93.75
2018-09-06T07:36:26.246Z,92.33
2018-09-06T07:38:55.186Z,93.95
2018-09-06T07:41:24.481Z,93.13
2018-09-06T07:43:53.127Z,92.66
2018-09-06T07:46:21.935Z,92.30
2018-09-06T07:48:50.972Z,91.04
2018-09-06T07:51:19.988Z,90.27
2018-09-06T07:53:48.753Z,89.65
2018-09-06T07:56:17.574Z,88.92
2018-09-06T07:58:46.447Z,89.76
2018-09-06T08:01:15.333Z,90.05
2018-09-06T08:03:44.737Z,89.87
2018-09-06T08:06:13.742Z,89.51
2018-09-06T08:08:42.899Z,88.94
2018-09-06T08:11:11.762Z,88.09
2018-09-06T08:13:40.528Z,86.71
2018-09-06T08:16:09.311Z,86.61
2018-09-06T08:18:38.399Z,84.83
2018-09-06T08:21:07.268Z,85.24
2018-09-06T08:23:36.105Z,84.91
2018-09-06T08:26:05.188Z,84.23
2018-09-06T08:28:34.168Z,82.85
2018-09-06T08:31:04.858Z,83.64
2018-09-06T08:33:34.873Z,83.28
2018-09-06T08:36:04.133Z,81.01
2018-09-06T08:38:32.972Z,80.63
2018-09-06T08:41:01.896Z,80.67
2018-09-06T08:43:30.852Z,79.89
2018-09-06T08:46:00.021Z,78.54
2018-09-06T08:48:29.186Z,76.64
2018-09-06T08:50:58.254Z,77.45
2018-09-06T08:53:27.153Z,77.49
2018-09-06T08:55:56.047Z,76.72
2018-09-06T08:58:25.190Z,74.75
2018-09-06T09:00:59.533Z,74.90
2018-09-06T09:03:28.457Z,74.18
2018-09-06T09:05:57.600Z,73.31
2018-09-06T09:08:32.881Z,73.69
2018-09-06T09:11:02.128Z,73.50
2018-09-06T09:13:31.206Z,72.41
2018-09-06T09:16:00.104Z,72.38
2018-09-06T09:18:29.209Z,71.15
2018-09-06T09:20:58.249Z,70.17
2018-09-06T09:23:27.200Z,68.87
2018-09-06T09:25:56.383Z,68.90
2018-09-06T09:28:25.108Z,69.59
2018-09-06T09:30:54.091Z,68.94
2018-09-06T09:33:23.151Z,67.16
2018-09-06T09:35:52.128Z,66.84
2018-09-06T09:38:20.835Z,66.44
2018-09-06T09:40:49.564Z,67.93
2018-09-06T09:43:18.547Z,65.60
2018-09-06T09:45:47.425Z,65.61
2018-09-06T09:48:16.490Z,64.55
2018-09-06T09:53:16.091Z,64.32
2018-09-06T09:55:44.992Z,63.41
2018-09-06T09:58:13.885Z,62.93
2018-09-06T10:00:43.623Z,63.86
2018-09-06T10:03:17.839Z,62.51
2018-09-06T10:05:52.249Z,61.92
2018-09-06T10:08:26.446Z,62.01
2018-09-06T10:10:55.766Z,61.21
2018-09-06T10:13:24.860Z,61.50
2018-09-06T10:15:54.048Z,60.53
2018-09-06T10:18:22.968Z,60.26
2018-09-06T10:20:52.209Z,59.29
2018-09-06T10:23:21.149Z,59.41
2018-09-06T10:25:50.138Z,61.29
2018-09-06T10:28:19.304Z,60.83
2018-09-06T10:30:48.323Z,59.06
2018-09-06T10:33:17.430Z,58.67
2018-09-06T10:35:46.726Z,58.61
2018-09-06T10:38:15.511Z,59.55
2018-09-06T10:40:44.338Z,59.95
2018-09-06T10:43:13.148Z,58.03
2018-09-06T10:45:42.272Z,56.98
2018-09-06T10:48:11.141Z,55.90
2018-09-06T10:50:40.029Z,56.45
2018-09-06T10:53:15.509Z,56.96
2018-09-06T10:55:44.477Z,57.05
2018-09-06T10:58:13.354Z,55.92
2018-09-06T11:00:42.504Z,56.58
2018-09-06T11:03:11.560Z,58.38
2018-09-06T11:05:41.098Z,57.19
2018-09-06T11:08:10.044Z,53.13
2018-09-06T11:10:39.087Z,54.31
2018-09-06T11:13:08.075Z,53.36
2018-09-06T11:15:37.073Z,53.88
2018-09-06T11:18:06.254Z,55.71
2018-09-06T11:20:35.099Z,48.19
2018-09-06T11:23:04.346Z,45.32
2018-09-06T11:25:33.238Z,46.70
2018-09-06T11:28:02.101Z,46.13
2018-09-06T11:30:32.857Z,44.11
2018-09-06T11:33:01.922Z,41.25
2018-09-06T11:35:30.937Z,41.58
2018-09-06T11:38:00.216Z,41.99
2018-09-06T11:40:29.058Z,40.97
2018-09-06T11:42:58.132Z,42.67
2018-09-06T11:45:27.184Z,40.56
2018-09-06T11:47:56.614Z,42.31
2018-09-06T11:50:25.632Z,45.62
2018-09-06T11:52:54.827Z,46.82
2018-09-06T11:55:23.600Z,46.89
2018-09-06T11:57:53.090Z,46.42
2018-09-06T12:00:22.695Z,47.51
2018-09-06T12:02:51.827Z,47.30
2018-09-06T12:05:20.919Z,48.83
2018-09-06T12:07:50.039Z,46.48
2018-09-06T12:10:19.068Z,48.62
2018-09-06T12:12:48.008Z,47.94
2018-09-06T12:15:17.300Z,48.30
2018-09-06T12:17:46.403Z,50.79
2018-09-06T12:20:15.286Z,50.36
2018-09-06T12:22:44.176Z,47.88
2018-09-06T12:25:13.045Z,41.60
2018-09-06T12:27:42.809Z,41.79
2018-09-06T12:30:11.729Z,39.10
2018-09-06T12:32:42.814Z,43.40
2018-09-06T12:35:12.268Z,42.35
2018-09-06T12:37:41.199Z,45.47
2018-09-06T12:40:10.132Z,45.73
2018-09-06T12:42:38.956Z,47.49
2018-09-06T12:45:08.083Z,44.44
2018-09-06T12:47:36.815Z,47.96
2018-09-06T12:50:05.871Z,47.70
2018-09-06T12:52:34.683Z,50.12
2018-09-06T12:55:03.471Z,48.95
2018-09-06T12:57:32.324Z,50.25
2018-09-06T13:00:01.635Z,49.27
2018-09-06T13:02:36.389Z,49.54
2018-09-06T13:05:05.913Z,43.52
2018-09-06T13:07:34.752Z,36.83
2018-09-06T13:10:03.548Z,40.84
2018-09-06T13:12:32.428Z,45.89
2018-09-06T13:15:01.535Z,45.12
2018-09-06T13:17:30.571Z,43.37
2018-09-06T13:19:59.521Z,46.38
2018-09-06T13:22:28.694Z,47.98
2018-09-06T13:24:57.763Z,48.41
2018-09-06T13:27:27.021Z,48.50
2018-09-06T13:29:56.721Z,48.07
2018-09-06T13:32:25.844Z,46.75
2018-09-06T13:34:54.911Z,35.25
2018-09-06T13:37:23.774Z,35.17
2018-09-06T13:39:52.786Z,43.79
2018-09-06T13:42:21.993Z,35.34
2018-09-06T13:44:50.873Z,34.63
2018-09-06T13:47:19.792Z,38.80
2018-09-06T13:49:48.937Z,33.59
2018-09-06T13:52:17.826Z,35.88
2018-09-06T13:54:46.612Z,40.58
2018-09-06T13:57:15.808Z,34.15
2018-09-06T13:59:44.838Z,31.51
2018-09-06T14:02:14.143Z,36.23
2018-09-06T14:04:43.034Z,30.76
2018-09-06T14:07:13.563Z,32.43
2018-09-06T14:09:42.431Z,33.40
2018-09-06T14:12:11.692Z,30.74
2018-09-06T14:14:40.850Z,34.11
2018-09-06T14:17:09.896Z,40.12
2018-09-06T14:19:38.838Z,41.14
2018-09-06T14:22:07.926Z,41.35
2018-09-06T14:24:36.823Z,42.76
2018-09-06T14:27:05.941Z,43.37
2018-09-06T14:29:35.023Z,42.42
2018-09-06T14:32:04.167Z,44.29
2018-09-06T14:34:34.021Z,43.21
2018-09-06T14:37:03.097Z,44.37
2018-09-06T14:39:32.013Z,45.33
2018-09-06T14:42:01.510Z,45.66
2018-09-06T14:44:30.815Z,46.33
2018-09-06T14:46:59.697Z,46.44
2018-09-06T14:49:29.700Z,46.33
2018-09-06T14:51:59.082Z,45.39
2018-09-06T14:54:27.950Z,46.37
2018-09-06T14:56:57.100Z,46.18
2018-09-06T14:59:26.202Z,45.94
2018-09-06T15:01:55.596Z,46.26
2018-09-06T15:04:24.294Z,46.01
2018-09-06T15:06:53.219Z,44.90
2018-09-06T15:09:22.176Z,44.91
2018-09-06T15:11:51.154Z,45.15
2018-09-06T15:14:20.167Z,45.64
2018-09-06T15:16:50.272Z,45.31
2018-09-06T15:19:19.432Z,46.68
2018-09-06T15:21:48.424Z,46.87
2018-09-06T15:24:17.272Z,47.49
2018-09-06T15:26:46.577Z,47.91
2018-09-06T15:29:16.141Z,47.26
2018-09-06T15:31:45.253Z,46.97
2018-09-06T15:34:13.999Z,47.18
2018-09-06T15:36:42.899Z,47.37
2018-09-06T15:39:11.936Z,48.32
2018-09-06T15:41:41.619Z,47.11
2018-09-06T15:44:10.741Z,48.00
2018-09-06T15:46:40.043Z,47.13
2018-09-06T15:49:09.280Z,48.12
2018-09-06T15:51:38.836Z,47.47
2018-09-06T15:54:08.061Z,48.11
2018-09-06T15:56:36.800Z,47.93
2018-09-06T15:59:06.549Z,48.88
2018-09-06T16:01:37.020Z,49.06
2018-09-06T16:04:06.898Z,49.40
2018-09-06T16:06:35.770Z,49.93
2018-09-06T16:09:05.447Z,49.51
2018-09-06T16:11:34.465Z,50.43
2018-09-06T16:14:03.684Z,51.46
2018-09-06T16:16:33.045Z,52.06
2018-09-06T16:19:02.482Z,52.07
2018-09-06T16:21:31.264Z,53.10
2018-09-06T16:24:00.662Z,53.01
2018-09-06T16:26:29.767Z,53.69
2018-09-06T16:28:58.653Z,54.36
2018-09-06T16:31:27.494Z,54.44
2018-09-06T16:33:56.592Z,54.16
2018-09-06T16:36:25.528Z,55.02
2018-09-06T16:38:54.625Z,55.46
2018-09-06T16:41:23.726Z,55.24
2018-09-06T16:43:52.823Z,55.56
2018-09-06T16:46:22.296Z,55.94
2018-09-06T16:48:52.240Z,56.31
2018-09-06T16:51:21.377Z,55.96
2018-09-06T16:53:50.186Z,57.12
2018-09-06T16:56:20.144Z,56.77
2018-09-06T16:58:50.220Z,56.70
2018-09-06T17:01:22.172Z,57.52
2018-09-06T17:03:51.994Z,57.50
2018-09-06T17:06:21.502Z,57.03
2018-09-06T17:08:50.528Z,57.31
2018-09-06T17:11:20.476Z,58.13
2018-09-06T17:13:49.265Z,58.26
2018-09-06T17:16:18.552Z,58.70
2018-09-06T17:18:47.838Z,58.79
2018-09-06T17:21:16.935Z,58.04
2018-09-06T17:23:45.778Z,58.91
2018-09-06T17:26:15.192Z,59.23
2018-09-06T17:28:45.449Z,59.01
2018-09-06T17:31:14.533Z,60.62
2018-09-06T17:33:50.363Z,61.89
2018-09-06T17:36:19.452Z,61.41
2018-09-06T17:38:48.465Z,60.56
2018-09-06T17:41:17.758Z,59.46
2018-09-06T17:43:47.292Z,59.92
2018-09-06T17:46:16.175Z,60.17
2018-09-06T17:48:45.458Z,59.81
2018-09-06T17:51:14.423Z,60.38
2018-09-06T17:53:43.211Z,60.58
2018-09-06T17:56:12.659Z,59.98
2018-09-06T17:58:41.861Z,59.78
2018-09-06T18:01:19.996Z,60.01
2018-09-06T18:03:49.456Z,60.43
2018-09-06T18:06:19.598Z,60.82
2018-09-06T18:08:49.305Z,60.96
2018-09-06T18:11:18.763Z,60.02
2018-09-06T18:13:47.996Z,59.97
2018-09-06T18:16:17.205Z,60.26
2018-09-06T18:18:46.049Z,60.15
2018-09-06T18:21:15.569Z,60.54
2018-09-06T18:23:44.512Z,59.82
2018-09-06T18:26:13.726Z,59.98
2018-09-06T18:28:42.876Z,60.56
2018-09-06T18:31:11.979Z,61.59
2018-09-06T18:33:42.199Z,61.26
2018-09-06T18:36:11.196Z,60.67
2018-09-06T18:38:40.662Z,60.63
2018-09-06T18:41:10.207Z,60.88
2018-09-06T18:43:39.084Z,60.52
2018-09-06T18:46:08.602Z,60.00
2018-09-06T18:48:37.487Z,61.34
2018-09-06T18:51:06.432Z,61.41
2018-09-06T18:53:35.479Z,61.43
2018-09-06T18:56:05.922Z,61.65
2018-09-06T18:58:35.161Z,61.23
2018-09-06T19:01:04.673Z,61.76
2018-09-06T19:03:33.487Z,62.16
2018-09-06T19:06:02.392Z,61.99
2018-09-06T19:08:33.278Z,61.99
2018-09-06T19:11:02.267Z,62.12
2018-09-06T19:13:31.317Z,62.63
2018-09-06T19:16:07.050Z,62.20
2018-09-06T19:18:37.289Z,61.79
2018-09-06T19:22:05.362Z,62.18
2018-09-06T19:24:34.643Z,62.35
2018-09-06T19:27:03.971Z,62.75
2018-09-06T19:29:34.280Z,62.37
2018-09-06T19:32:03.415Z,62.59
2018-09-06T19:34:32.481Z,63.05
2018-09-06T19:43:49.745Z,64.03
2018-09-06T19:46:18.836Z,64.07
2018-09-06T19:48:47.949Z,64.12
2018-09-06T19:51:17.751Z,64.46
2018-09-06T19:53:47.140Z,64.20
2018-09-06T19:56:16.656Z,64.13
2018-09-06T19:58:47.702Z,64.04
2018-09-06T20:01:22.086Z,64.47
2018-09-06T20:03:51.589Z,64.46
2018-09-06T20:06:20.288Z,64.40
2018-09-06T20:08:49.496Z,65.06
2018-09-06T20:11:18.603Z,64.73
2018-09-06T20:13:48.521Z,64.89
2018-09-06T20:16:17.789Z,65.08
2018-09-06T20:18:47.028Z,66.15
2018-09-06T20:21:16.209Z,66.00
2018-09-06T20:23:45.460Z,66.21
2018-09-06T20:26:15.232Z,66.44
2018-09-06T20:28:44.523Z,67.24
2018-09-06T20:31:13.682Z,66.68
2018-09-06T20:33:42.879Z,67.41
2018-09-06T20:36:12.144Z,66.90
2018-09-06T20:38:41.743Z,67.63
2018-09-06T20:41:11.028Z,68.49
2018-09-06T20:43:40.389Z,68.00
2018-09-06T20:46:09.179Z,68.39
2018-09-06T20:48:38.312Z,68.18
2018-09-06T20:51:07.406Z,69.26
2018-09-06T20:53:36.297Z,69.60
2018-09-06T20:56:05.640Z,70.45
2018-09-06T20:58:34.888Z,70.63
2018-09-06T21:01:04.177Z,70.10
2018-09-06T21:03:33.667Z,71.33
2018-09-06T21:08:38.798Z,70.93
2018-09-06T21:11:07.639Z,70.91
2018-09-06T21:13:36.432Z,71.42
2018-09-06T21:16:05.487Z,71.61
2018-09-06T21:18:34.913Z,71.93
2018-09-06T21:21:03.708Z,71.13
2018-09-06T21:23:32.851Z,71.71
2018-09-06T21:26:01.997Z,71.03
2018-09-06T21:28:30.973Z,71.33
2018-09-06T21:30:59.860Z,71.60
2018-09-06T21:33:29.188Z,72.99
2018-09-06T21:35:58.455Z,72.28
2018-09-06T21:38:27.387Z,72.27
2018-09-06T21:40:56.309Z,72.28
2018-09-06T21:43:26.304Z,72.27
2018-09-06T21:45:55.494Z,72.37
2018-09-06T21:48:24.360Z,72.83
2018-09-06T21:50:53.710Z,73.11
2018-09-06T21:53:22.780Z,72.99
2018-09-06T21:55:51.980Z,73.37
2018-09-06T21:58:21.085Z,72.91
2018-09-06T22:00:50.141Z,73.22
2018-09-06T22:03:24.383Z,73.54
2018-09-06T22:05:53.647Z,74.25
2018-09-06T22:08:24.213Z,73.95
2018-09-06T22:10:53.305Z,73.87
2018-09-06T22:13:22.194Z,74.15
2018-09-06T22:15:51.500Z,74.89
2018-09-06T22:18:21.956Z,74.24
2018-09-06T22:20:51.118Z,75.17
2018-09-06T22:23:20.226Z,74.88
2018-09-06T22:25:49.305Z,75.47
2018-09-06T22:28:18.391Z,76.03
2018-09-06T22:30:47.245Z,75.84
2018-09-06T22:33:16.088Z,75.81
2018-09-06T22:35:45.194Z,75.80
2018-09-06T22:38:14.168Z,76.30
2018-09-06T22:40:43.038Z,76.34
2018-09-06T22:43:11.898Z,76.65
2018-09-06T22:45:40.880Z,76.83
2018-09-06T22:48:09.741Z,77.20
2018-09-06T22:50:38.835Z,77.07
2018-09-06T22:53:07.782Z,77.40
2018-09-06T22:55:36.781Z,77.82
2018-09-06T22:58:05.713Z,77.23
2018-09-06T23:00:34.816Z,77.32
2018-09-06T23:03:08.756Z,77.65
2018-09-06T23:05:37.692Z,77.87
2018-09-06T23:08:06.473Z,78.70
2018-09-06T23:10:35.302Z,78.13
2018-09-06T23:13:04.067Z,78.80
2018-09-06T23:15:33.029Z,78.53
2018-09-06T23:18:01.808Z,79.29
2018-09-06T23:20:30.712Z,79.34
2018-09-06T23:22:59.656Z,79.34
2018-09-06T23:25:28.956Z,79.20
2018-09-06T23:27:58.032Z,79.82
2018-09-06T23:30:27.129Z,80.50
2018-09-06T23:32:56.639Z,80.26
2018-09-06T23:35:25.729Z,81.12
2018-09-06T23:37:54.586Z,81.14
2018-09-06T23:40:23.710Z,81.71
2018-09-06T23:42:52.793Z,81.20
2018-09-06T23:45:22.113Z,81.74
2018-09-06T23:47:50.953Z,81.95
2018-09-06T23:50:20.097Z,81.58
2018-09-06T23:52:49.001Z,81.65
2018-09-06T23:55:17.913Z,82.12
2018-09-06T23:57:46.972Z,82.40
